createdAt,value
2023-03-26T00:01:21.568Z,100571.30
2023-03-26T00:03:53.732Z,100567.73
2023-03-26T00:06:25.975Z,100568.28
2023-03-26T00:08:53.728Z,100569.23
2023-03-26T00:11:23.372Z,100569.28
2023-03-26T00:13:50.518Z,100568.46
2023-03-26T00:16:20.097Z,100575.06
2023-03-26T00:18:49.098Z,100583.40
2023-03-26T00:21:28.119Z,100583.70
2023-03-26T00:24:00.216Z,100576.41
2023-03-26T00:26:29.696Z,100577.77
2023-03-26T00:28:57.835Z,100583.11
2023-03-26T00:31:24.994Z,100590.03
2023-03-26T00:33:55.982Z,100598.64
2023-03-26T00:36:26.819Z,100599.83
2023-03-26T00:38:54.295Z,100595.77
2023-03-26T00:41:31.237Z,100586.83
2023-03-26T00:43:59.829Z,100586.85
2023-03-26T00:46:28.518Z,100596.74
2023-03-26T00:48:59.022Z,100593.34
2023-03-26T00:51:27.214Z,100590.25
2023-03-26T00:53:54.108Z,100587.45
2023-03-26T00:56:20.908Z,100589.86
2023-03-26T00:58:50.275Z,100581.64
2023-03-26T01:01:27.531Z,100581.90
2023-03-26T01:04:08.809Z,100576.90
2023-03-26T01:06:39.001Z,100570.47
2023-03-26T01:09:14.808Z,100562.33
2023-03-26T01:11:42.068Z,100558.40
2023-03-26T01:14:14.667Z,100548.14
2023-03-26T01:16:46.850Z,100546.23
2023-03-26T01:19:53.290Z,100542.40
2023-03-26T01:22:23.164Z,100531.48
2023-03-26T01:24:54.174Z,100528.85
2023-03-26T01:27:32.121Z,100524.80
2023-03-26T01:30:26.931Z,100525.41
2023-03-26T01:33:00.806Z,100530.63
2023-03-26T01:35:52.164Z,100534.73
2023-03-26T01:38:28.859Z,100532.23
2023-03-26T01:41:21.006Z,100527.50
2023-03-26T01:44:09.087Z,100526.77
2023-03-26T01:46:36.486Z,100533.19
2023-03-26T01:49:06.273Z,100530.98
2023-03-26T01:51:35.534Z,100527.70
2023-03-26T01:54:05.887Z,100522.86
2023-03-26T01:56:54.992Z,100523.88
2023-03-26T01:59:46.334Z,100523.73
2023-03-26T02:02:21.870Z,100516.77
2023-03-26T02:04:57.928Z,100518.94
2023-03-26T02:07:39.652Z,100521.38
2023-03-26T02:10:18.252Z,100513.81
2023-03-26T02:12:45.426Z,100512.09
2023-03-26T02:15:12.787Z,100515.70
2023-03-26T02:17:40.560Z,100516.08
2023-03-26T02:20:14.516Z,100515.23
2023-03-26T02:22:45.971Z,100509.58
2023-03-26T02:25:16.665Z,100512.66
2023-03-26T02:27:44.606Z,100516.95
2023-03-26T02:30:16.328Z,100509.52
2023-03-26T02:32:44.300Z,100514.73
2023-03-26T02:35:12.663Z,100525.83
2023-03-26T02:37:40.117Z,100527.00
2023-03-26T02:40:14.170Z,100537.41
2023-03-26T02:42:42.355Z,100541.96
2023-03-26T02:45:09.469Z,100539.56
2023-03-26T02:48:01.101Z,100539.10
2023-03-26T02:50:54.699Z,100543.81
2023-03-26T02:53:41.457Z,100545.72
2023-03-26T02:56:28.686Z,100544.08
2023-03-26T02:59:21.695Z,100539.80
2023-03-26T03:01:56.261Z,100533.54
2023-03-26T03:04:23.473Z,100540.35
2023-03-26T03:06:53.179Z,100542.48
2023-03-26T03:09:20.512Z,100541.89
2023-03-26T03:12:06.238Z,100541.52
2023-03-26T03:14:33.209Z,100539.27
2023-03-26T03:16:59.924Z,100537.98
2023-03-26T03:19:27.143Z,100538.95
2023-03-26T03:21:54.519Z,100532.13
2023-03-26T03:24:21.154Z,100528.79
2023-03-26T03:26:48.207Z,100522.11
2023-03-26T03:29:30.924Z,100521.60
2023-03-26T03:32:01.570Z,100519.32
2023-03-26T03:34:38.688Z,100519.40
2023-03-26T03:37:05.985Z,100516.52
2023-03-26T03:39:40.628Z,100517.88
2023-03-26T03:42:07.826Z,100517.70
2023-03-26T03:44:34.581Z,100515.27
2023-03-26T03:47:01.666Z,100505.18
2023-03-26T03:49:28.357Z,100509.95
2023-03-26T03:51:57.235Z,100503.08
2023-03-26T03:54:32.268Z,100504.58
2023-03-26T03:57:18.963Z,100507.56
2023-03-26T03:59:59.630Z,100510.92
2023-03-26T04:02:34.956Z,100509.89
2023-03-26T04:05:04.469Z,100511.30
2023-03-26T04:07:32.326Z,100517.42
2023-03-26T04:10:07.054Z,100524.73
2023-03-26T04:12:56.187Z,100531.06
2023-03-26T04:15:46.108Z,100532.04
2023-03-26T04:18:12.904Z,100528.66
2023-03-26T04:20:46.980Z,100524.13
2023-03-26T04:23:19.596Z,100524.04
2023-03-26T04:25:54.196Z,100525.19
2023-03-26T04:28:43.698Z,100530.39
2023-03-26T04:31:24.458Z,100526.20
2023-03-26T04:34:00.123Z,100524.92
2023-03-26T04:36:32.110Z,100530.92
2023-03-26T04:39:03.390Z,100530.56
2023-03-26T04:41:50.065Z,100525.08
2023-03-26T04:44:22.489Z,100520.80
2023-03-26T04:47:00.510Z,100522.59
2023-03-26T04:49:35.773Z,100519.70
2023-03-26T04:52:02.742Z,100514.29
2023-03-26T04:54:48.267Z,100524.69
2023-03-26T04:57:38.876Z,100525.92
2023-03-26T05:00:16.433Z,100529.38
2023-03-26T05:02:49.881Z,100528.30
2023-03-26T05:05:17.901Z,100531.70
2023-03-26T05:07:45.944Z,100531.58
2023-03-26T05:10:15.668Z,100533.93
2023-03-26T05:12:52.167Z,100534.06
2023-03-26T05:15:23.595Z,100530.05
2023-03-26T05:18:04.269Z,100529.52
2023-03-26T05:20:36.066Z,100526.46
2023-03-26T05:23:04.053Z,100528.48
2023-03-26T05:25:35.099Z,100528.36
2023-03-26T05:28:02.942Z,100523.83
2023-03-26T05:30:43.597Z,100516.70
2023-03-26T05:33:10.755Z,100518.48
2023-03-26T05:35:43.752Z,100515.64
2023-03-26T05:38:10.996Z,100513.58
2023-03-26T05:40:38.065Z,100513.09
2023-03-26T05:43:06.237Z,100510.84
2023-03-26T05:45:35.678Z,100508.95
2023-03-26T05:48:13.251Z,100509.29
2023-03-26T05:50:40.022Z,100509.72
2023-03-26T05:53:07.123Z,100512.92
2023-03-26T05:56:02.205Z,100511.58
2023-03-26T05:59:08.149Z,100513.42
2023-03-26T06:02:01.287Z,100510.42
2023-03-26T06:04:34.201Z,100511.89
2023-03-26T06:07:19.932Z,100511.66
2023-03-26T06:10:02.924Z,100509.95
2023-03-26T06:12:30.568Z,100511.91
2023-03-26T06:14:57.277Z,100514.36
2023-03-26T06:17:37.292Z,100513.30
2023-03-26T06:20:13.660Z,100513.94
2023-03-26T06:22:43.689Z,100511.55
2023-03-26T06:25:21.999Z,100515.14
2023-03-26T06:28:04.698Z,100519.73
2023-03-26T06:30:40.627Z,100516.20
2023-03-26T06:33:36.491Z,100513.67
2023-03-26T06:36:04.219Z,100512.80
2023-03-26T06:38:31.246Z,100512.71
2023-03-26T06:41:04.930Z,100510.37
2023-03-26T06:43:43.865Z,100505.64
2023-03-26T06:46:11.211Z,100499.15
2023-03-26T06:48:39.145Z,100496.66
2023-03-26T06:51:25.069Z,100498.27
2023-03-26T06:54:17.903Z,100499.75
2023-03-26T06:56:49.855Z,100498.91
2023-03-26T06:59:28.800Z,100495.48
2023-03-26T07:02:13.960Z,100495.14
2023-03-26T07:04:59.482Z,100489.55
2023-03-26T07:07:46.345Z,100478.48
2023-03-26T07:10:36.546Z,100468.80
2023-03-26T07:13:21.991Z,100467.13
2023-03-26T07:16:21.915Z,100466.45
2023-03-26T07:18:59.356Z,100459.02
2023-03-26T07:21:30.799Z,100451.08
2023-03-26T07:23:58.172Z,100446.16
2023-03-26T07:27:22.677Z,100445.94
2023-03-26T07:29:59.694Z,100444.45
2023-03-26T07:33:03.662Z,100440.04
2023-03-26T07:36:04.530Z,100435.13
2023-03-26T07:39:09.115Z,100423.66
2023-03-26T07:42:20.311Z,100414.10
2023-03-26T07:45:25.474Z,100407.14
2023-03-26T07:48:21.193Z,100399.88
2023-03-26T07:51:18.828Z,100395.72
2023-03-26T07:54:10.760Z,100389.06
2023-03-26T07:56:55.068Z,100386.23
2023-03-26T07:59:44.723Z,100386.96
2023-03-26T08:02:49.593Z,100383.14
2023-03-26T08:05:55.575Z,100367.69
2023-03-26T08:08:58.328Z,100359.61
2023-03-26T08:12:31.511Z,100356.41
2023-03-26T08:15:01.156Z,100357.71
2023-03-26T08:17:39.490Z,100358.81
2023-03-26T08:20:31.053Z,100355.48
2023-03-26T08:23:07.227Z,100344.77
2023-03-26T08:25:53.366Z,100341.58
2023-03-26T08:28:31.114Z,100339.98
2023-03-26T08:30:58.288Z,100340.34
2023-03-26T08:33:27.624Z,100340.98
2023-03-26T08:35:54.297Z,100337.20
2023-03-26T08:38:22.101Z,100338.85
2023-03-26T08:41:07.170Z,100332.31
2023-03-26T08:44:03.255Z,100332.33
2023-03-26T08:46:46.625Z,100322.27
2023-03-26T08:49:31.929Z,100314.04
2023-03-26T08:52:35.552Z,100310.69
2023-03-26T08:55:20.689Z,100304.95
2023-03-26T08:58:18.506Z,100303.48
2023-03-26T09:01:03.886Z,100298.02
2023-03-26T09:03:53.104Z,100287.34
2023-03-26T09:06:29.118Z,100280.64
2023-03-26T09:09:42.378Z,100270.77
2023-03-26T09:12:28.224Z,100268.02
2023-03-26T09:15:26.601Z,100258.84
2023-03-26T09:18:15.426Z,100257.42
2023-03-26T09:21:25.672Z,100255.75
2023-03-26T09:24:10.220Z,100256.63
2023-03-26T09:26:58.633Z,100254.30
2023-03-26T09:29:56.143Z,100254.56
2023-03-26T09:32:40.674Z,100249.97
2023-03-26T09:35:31.854Z,100248.57
2023-03-26T09:38:18.589Z,100254.35
2023-03-26T09:40:58.432Z,100248.69
2023-03-26T09:43:57.083Z,100244.84
2023-03-26T09:46:46.702Z,100250.38
2023-03-26T09:49:38.733Z,100240.77
2023-03-26T09:52:24.195Z,100239.35
2023-03-26T09:55:16.984Z,100236.41
2023-03-26T09:58:19.130Z,100222.73
2023-03-26T10:01:06.901Z,100221.13
2023-03-26T10:04:01.142Z,100223.55
2023-03-26T10:06:42.725Z,100225.14
2023-03-26T10:09:28.681Z,100222.70
2023-03-26T10:12:07.618Z,100231.09
2023-03-26T10:15:04.236Z,100239.85
2023-03-26T10:17:31.998Z,100243.30
2023-03-26T10:20:17.825Z,100234.98
2023-03-26T10:23:00.537Z,100229.04
2023-03-26T10:25:46.529Z,100227.68
2023-03-26T10:28:34.408Z,100215.20
2023-03-26T10:31:22.886Z,100208.21
2023-03-26T10:33:59.215Z,100201.06
2023-03-26T10:37:03.970Z,100202.89
2023-03-26T10:39:49.598Z,100198.66
2023-03-26T10:42:31.328Z,100192.69
2023-03-26T10:45:07.835Z,100189.08
2023-03-26T10:48:12.537Z,100187.70
2023-03-26T10:50:57.899Z,100191.12
2023-03-26T10:53:43.588Z,100190.98
2023-03-26T10:56:27.682Z,100187.07
2023-03-26T10:58:57.048Z,100183.89
2023-03-26T11:01:28.332Z,100191.11
2023-03-26T11:03:57.698Z,100193.20
2023-03-26T11:06:27.623Z,100195.88
2023-03-26T11:09:35.754Z,100190.59
2023-03-26T11:12:26.494Z,100186.60
2023-03-26T11:15:38.690Z,100185.81
2023-03-26T11:18:13.725Z,100171.05
2023-03-26T11:21:18.820Z,100167.94
2023-03-26T11:24:05.201Z,100166.50
2023-03-26T11:26:42.637Z,100165.98
2023-03-26T11:29:33.252Z,100166.13
2023-03-26T11:32:15.736Z,100166.14
2023-03-26T11:35:00.490Z,100162.73
2023-03-26T11:37:42.203Z,100149.11
2023-03-26T11:40:25.652Z,100130.37
2023-03-26T11:43:00.468Z,100125.25
2023-03-26T11:45:31.104Z,100120.02
2023-03-26T11:48:30.558Z,100118.27
2023-03-26T11:51:14.933Z,100123.95
2023-03-26T11:53:47.056Z,100130.77
2023-03-26T11:56:32.804Z,100130.84
2023-03-26T11:59:16.113Z,100130.38
2023-03-26T12:01:58.159Z,100129.00
2023-03-26T12:04:35.674Z,100119.96
2023-03-26T12:07:34.652Z,100108.80
2023-03-26T12:10:20.464Z,100095.09
2023-03-26T12:12:48.759Z,100079.63
2023-03-26T12:15:19.139Z,100064.36
2023-03-26T12:17:55.987Z,100052.80
2023-03-26T12:20:25.850Z,100045.17
2023-03-26T12:22:59.187Z,100041.00
2023-03-26T12:25:31.695Z,100033.55
2023-03-26T12:28:13.822Z,100029.77
2023-03-26T12:30:45.082Z,100032.09
2023-03-26T12:33:39.079Z,100035.20
2023-03-26T12:36:24.757Z,100030.16
2023-03-26T12:40:07.641Z,100023.24
2023-03-26T12:44:44.187Z,100017.65
2023-03-26T12:44:58.840Z,100011.09
2023-03-26T12:47:59.882Z,100006.73
2023-03-26T12:50:34.668Z,100002.70
2023-03-26T12:53:21.039Z,99999.27
2023-03-26T12:56:01.539Z,99989.90
2023-03-26T12:58:57.534Z,99986.48
2023-03-26T13:01:53.035Z,99983.25
2023-03-26T13:05:05.534Z,99975.95
2023-03-26T13:07:39.959Z,99967.07
2023-03-26T13:10:26.961Z,99962.96
2023-03-26T13:13:44.286Z,99956.16
2023-03-26T13:16:39.001Z,99949.09
2023-03-26T13:19:18.195Z,99943.45
2023-03-26T13:21:56.930Z,99943.10
2023-03-26T13:24:32.217Z,99944.58
2023-03-26T13:27:25.360Z,99939.64
2023-03-26T13:30:38.285Z,99926.92
2023-03-26T13:33:23.997Z,99920.31
2023-03-26T13:36:23.826Z,99914.62
2023-03-26T13:39:05.041Z,99906.52
2023-03-26T13:41:37.857Z,99899.80
2023-03-26T13:44:20.876Z,99899.21
2023-03-26T13:46:53.319Z,99896.80
2023-03-26T13:50:01.017Z,99897.95
2023-03-26T13:52:41.911Z,99890.83
2023-03-26T13:55:37.439Z,99880.84
2023-03-26T13:58:41.848Z,99867.84
2023-03-26T14:01:34.036Z,99859.65
2023-03-26T14:04:21.623Z,99855.08
2023-03-26T14:07:01.212Z,99848.33
2023-03-26T14:09:40.888Z,99831.11
2023-03-26T14:12:29.529Z,99822.41
2023-03-26T14:15:04.798Z,99820.48
2023-03-26T14:17:42.549Z,99814.73
2023-03-26T14:20:40.042Z,99805.75
2023-03-26T14:23:32.996Z,99795.48
2023-03-26T14:26:11.967Z,99785.38
2023-03-26T14:29:00.959Z,99778.84
2023-03-26T14:31:34.288Z,99771.18
2023-03-26T14:34:34.391Z,99765.46
2023-03-26T14:37:10.615Z,99762.84
2023-03-26T14:39:59.083Z,99754.71
2023-03-26T14:42:56.393Z,99754.77
2023-03-26T14:45:41.943Z,99748.02
2023-03-26T14:48:11.384Z,99752.23
2023-03-26T14:50:54.586Z,99750.30
2023-03-26T14:53:38.190Z,99750.04
2023-03-26T14:56:27.165Z,99755.60
2023-03-26T14:59:17.742Z,99754.09
2023-03-26T15:01:56.928Z,99748.44
2023-03-26T15:04:47.267Z,99740.74
2023-03-26T15:07:30.395Z,99736.77
2023-03-26T15:10:13.447Z,99727.89
2023-03-26T15:12:48.701Z,99724.04
2023-03-26T15:15:42.260Z,99716.81
2023-03-26T15:18:08.996Z,99716.59
2023-03-26T15:20:57.765Z,99714.70
2023-03-26T15:24:00.636Z,99710.55
2023-03-26T15:26:48.615Z,99712.89
2023-03-26T15:30:15.244Z,99709.94
2023-03-26T15:32:57.293Z,99702.91
2023-03-26T15:35:49.241Z,99697.64
2023-03-26T15:38:48.850Z,99693.02
2023-03-26T15:41:30.614Z,99692.02
2023-03-26T15:44:23.422Z,99696.58
2023-03-26T15:47:28.616Z,99703.83
2023-03-26T15:50:18.061Z,99696.73
2023-03-26T15:53:18.716Z,99697.96
2023-03-26T15:56:07.489Z,99696.52
2023-03-26T15:58:55.449Z,99700.08
2023-03-26T16:01:34.612Z,99705.00
2023-03-26T16:04:26.652Z,99706.64
2023-03-26T16:07:05.799Z,99703.34
2023-03-26T16:09:56.090Z,99702.30
2023-03-26T16:12:32.814Z,99708.63
2023-03-26T16:15:25.440Z,99704.55
2023-03-26T16:18:11.893Z,99700.77
2023-03-26T16:21:09.094Z,99697.99
2023-03-26T16:24:02.525Z,99704.69
2023-03-26T16:26:47.752Z,99704.24
2023-03-26T16:29:14.536Z,99699.78
2023-03-26T16:32:09.197Z,99708.72
2023-03-26T16:35:00.372Z,99715.80
2023-03-26T16:37:36.587Z,99712.52
2023-03-26T16:40:36.335Z,99698.59
2023-03-26T16:43:06.815Z,99700.83
2023-03-26T16:45:45.384Z,99707.45
2023-03-26T16:48:21.170Z,99706.33
2023-03-26T16:51:03.901Z,99708.05
2023-03-26T16:54:09.833Z,99711.31
2023-03-26T16:56:53.198Z,99703.67
2023-03-26T16:59:44.507Z,99705.11
2023-03-26T17:02:31.401Z,99719.41
2023-03-26T17:05:40.374Z,99704.45
2023-03-26T17:08:35.619Z,99673.26
2023-03-26T17:11:08.817Z,99663.90
2023-03-26T17:14:03.702Z,99656.19
2023-03-26T17:16:33.266Z,99636.17
2023-03-26T17:19:38.028Z,99634.36
2023-03-26T17:22:14.029Z,99634.36
2023-03-26T17:25:01.698Z,99631.81
2023-03-26T17:28:07.304Z,99624.89
2023-03-26T17:30:58.392Z,99612.11
2023-03-26T17:33:35.021Z,99607.33
2023-03-26T17:36:21.434Z,99591.46
2023-03-26T17:38:48.124Z,99584.70
2023-03-26T17:42:01.023Z,99585.14
2023-03-26T17:44:42.162Z,99584.10
2023-03-26T17:47:22.400Z,99568.79
2023-03-26T17:49:53.920Z,99566.69
2023-03-26T17:52:40.973Z,99567.23
2023-03-26T17:55:15.844Z,99565.34
2023-03-26T17:57:50.502Z,99567.66
2023-03-26T18:00:42.280Z,99567.05
2023-03-26T18:03:33.151Z,99574.71
2023-03-26T18:06:29.333Z,99593.00
2023-03-26T18:09:02.423Z,99608.41
2023-03-26T18:11:52.660Z,99619.54
2023-03-26T18:14:41.181Z,99623.67
2023-03-26T18:17:07.982Z,99630.84
2023-03-26T18:19:54.878Z,99638.20
2023-03-26T18:22:30.597Z,99641.73
2023-03-26T18:25:01.432Z,99643.98
2023-03-26T18:27:40.437Z,99643.98
2023-03-26T18:30:23.492Z,99640.91
2023-03-26T18:33:13.654Z,99611.87
2023-03-26T18:35:46.562Z,99583.27
2023-03-26T18:38:35.943Z,99578.21
2023-03-26T18:41:08.172Z,99568.93
2023-03-26T18:43:44.173Z,99553.92
2023-03-26T18:46:14.940Z,99556.79
2023-03-26T18:48:42.676Z,99556.08
2023-03-26T18:51:10.780Z,99550.45
2023-03-26T18:53:41.321Z,99550.30
2023-03-26T18:56:31.892Z,99549.91
2023-03-26T18:59:00.601Z,99559.48
2023-03-26T19:01:30.793Z,99578.60
2023-03-26T19:04:02.220Z,99590.42
2023-03-26T19:06:29.820Z,99593.06
2023-03-26T19:08:57.707Z,99599.78
2023-03-26T19:11:26.298Z,99612.52
2023-03-26T19:14:20.106Z,99629.24
2023-03-26T19:16:56.366Z,99634.46
2023-03-26T19:19:29.357Z,99636.55
2023-03-26T19:21:59.066Z,99636.77
2023-03-26T19:24:27.546Z,99631.10
2023-03-26T19:26:54.546Z,99632.70
2023-03-26T19:29:28.764Z,99645.34
2023-03-26T19:32:07.168Z,99649.23
2023-03-26T19:34:39.191Z,99657.77
2023-03-26T19:37:21.960Z,99657.35
2023-03-26T19:39:54.398Z,99650.13
2023-03-26T19:42:24.108Z,99647.59
2023-03-26T19:44:51.962Z,99647.57
2023-03-26T19:47:29.268Z,99645.00
2023-03-26T19:50:26.100Z,99641.09
2023-03-26T19:53:28.753Z,99638.08
2023-03-26T19:56:11.889Z,99644.59
2023-03-26T19:58:40.372Z,99650.67
2023-03-26T20:01:30.461Z,99653.61
2023-03-26T20:04:01.558Z,99643.42
2023-03-26T20:06:41.727Z,99631.60
2023-03-26T20:09:11.042Z,99623.79
2023-03-26T20:11:39.875Z,99620.40
2023-03-26T20:14:26.708Z,99618.13
2023-03-26T20:16:53.887Z,99613.68
2023-03-26T20:19:20.765Z,99607.95
2023-03-26T20:21:47.475Z,99605.09
2023-03-26T20:24:16.865Z,99592.02
2023-03-26T20:26:45.155Z,99583.48
2023-03-26T20:29:13.062Z,99577.09
2023-03-26T20:31:41.962Z,99587.48
2023-03-26T20:34:17.821Z,99598.11
2023-03-26T20:36:45.834Z,99598.67
2023-03-26T20:39:13.446Z,99595.13
2023-03-26T20:41:46.652Z,99595.48
2023-03-26T20:44:16.152Z,99585.17
2023-03-26T20:46:44.416Z,99582.21
2023-03-26T20:49:12.523Z,99576.11
2023-03-26T20:51:39.446Z,99564.98
2023-03-26T20:54:09.132Z,99560.20
2023-03-26T20:56:37.776Z,99564.66
2023-03-26T20:59:11.043Z,99567.90
2023-03-26T21:01:38.756Z,99564.16
2023-03-26T21:04:06.746Z,99562.60
2023-03-26T21:06:33.524Z,99560.13
2023-03-26T21:09:00.799Z,99562.36
2023-03-26T21:11:39.906Z,99569.58
2023-03-26T21:14:12.740Z,99572.59
2023-03-26T21:16:39.871Z,99577.58
2023-03-26T21:19:06.955Z,99576.30
2023-03-26T21:22:07.570Z,99568.33
2023-03-26T21:24:49.580Z,99557.27
2023-03-26T21:27:31.427Z,99556.39
2023-03-26T21:30:00.158Z,99554.61
2023-03-26T21:32:27.376Z,99543.30
2023-03-26T21:37:24.320Z,99527.48
2023-03-26T21:39:51.587Z,99524.79
2023-03-26T21:42:18.609Z,99519.41
2023-03-26T21:44:45.629Z,99514.23
2023-03-26T21:47:12.874Z,99517.11
2023-03-26T21:49:39.857Z,99513.21
2023-03-26T21:52:06.950Z,99505.15
2023-03-26T21:54:33.959Z,99492.77
2023-03-26T21:57:18.781Z,99477.95
2023-03-26T21:59:58.991Z,99457.77
2023-03-26T22:03:03.479Z,99446.98
2023-03-26T22:05:54.509Z,99441.28
2023-03-26T22:08:38.946Z,99455.15
2023-03-26T22:11:07.252Z,99457.27
2023-03-26T22:13:38.321Z,99451.59
2023-03-26T22:16:07.431Z,99444.06
2023-03-26T22:18:34.560Z,99439.36
2023-03-26T22:21:01.754Z,99437.82
2023-03-26T22:23:36.611Z,99435.73
2023-03-26T22:26:04.615Z,99433.31
2023-03-26T22:28:32.105Z,99440.27
2023-03-26T22:30:59.148Z,99438.77
2023-03-26T22:33:26.826Z,99440.05
2023-03-26T22:35:55.914Z,99445.20
2023-03-26T22:38:23.045Z,99449.02
2023-03-26T22:40:57.922Z,99446.14
2023-03-26T22:43:24.785Z,99442.02
2023-03-26T22:45:53.784Z,99438.07
2023-03-26T22:48:22.472Z,99438.73
2023-03-26T22:50:58.516Z,99437.09
2023-03-26T22:53:25.676Z,99431.65
2023-03-26T22:55:52.292Z,99431.67
2023-03-26T22:58:19.038Z,99430.66
2023-03-26T23:00:46.504Z,99426.05
2023-03-26T23:03:15.419Z,99428.64
2023-03-26T23:05:42.727Z,99434.61
2023-03-26T23:08:09.710Z,99433.19
2023-03-26T23:10:36.934Z,99425.92
2023-03-26T23:13:03.709Z,99422.30
2023-03-26T23:15:30.606Z,99422.33
2023-03-26T23:17:58.400Z,99415.95
2023-03-26T23:20:25.450Z,99413.38
2023-03-26T23:22:52.658Z,99415.48
2023-03-26T23:25:19.975Z,99415.71
2023-03-26T23:27:48.478Z,99412.86
2023-03-26T23:30:16.744Z,99416.76
2023-03-26T23:32:44.133Z,99417.59
2023-03-26T23:35:11.310Z,99409.60
2023-03-26T23:37:38.042Z,99409.10
2023-03-26T23:40:10.272Z,99410.63
2023-03-26T23:42:37.664Z,99411.47
2023-03-26T23:45:05.680Z,99416.69
2023-03-26T23:47:34.986Z,99419.31
2023-03-26T23:50:02.747Z,99415.37
2023-03-26T23:52:30.268Z,99416.92
2023-03-26T23:54:59.906Z,99412.13
2023-03-26T23:57:27.292Z,99411.13
2023-03-26T23:59:54.769Z,99409.86
